sensor_id;sensor_type;location;lat;lon;timestamp;P1;durP1;ratioP1;P2;durP2;ratioP2
13202;SDS011;6666;51.626;7.530;2023-04-23T00:02:23;30.90;;;17.30;;
13202;SDS011;6666;51.626;7.530;2023-04-23T00:04:52;30.60;;;17.08;;
13202;SDS011;6666;51.626;7.530;2023-04-23T00:07:24;31.33;;;17.23;;
13202;SDS011;6666;51.626;7.530;2023-04-23T00:09:53;32.67;;;18.52;;
13202;SDS011;6666;51.626;7.530;2023-04-23T00:12:24;33.13;;;17.77;;
13202;SDS011;6666;51.626;7.530;2023-04-23T00:14:54;31.33;;;18.45;;
13202;SDS011;6666;51.626;7.530;2023-04-23T00:17:23;29.52;;;17.23;;
13202;SDS011;6666;51.626;7.530;2023-04-23T00:19:52;32.13;;;17.70;;
13202;SDS011;6666;51.626;7.530;2023-04-23T00:22:20;32.20;;;17.20;;
13202;SDS011;6666;51.626;7.530;2023-04-23T00:24:48;33.40;;;18.00;;
13202;SDS011;6666;51.626;7.530;2023-04-23T00:27:16;30.92;;;17.52;;
13202;SDS011;6666;51.626;7.530;2023-04-23T00:29:48;35.13;;;18.60;;
13202;SDS011;6666;51.626;7.530;2023-04-23T00:32:16;33.72;;;18.65;;
13202;SDS011;6666;51.626;7.530;2023-04-23T00:34:46;32.45;;;17.17;;
13202;SDS011;6666;51.626;7.530;2023-04-23T00:37:15;32.77;;;17.67;;
13202;SDS011;6666;51.626;7.530;2023-04-23T00:39:43;34.50;;;17.73;;
13202;SDS011;6666;51.626;7.530;2023-04-23T00:42:11;33.63;;;17.67;;
13202;SDS011;6666;51.626;7.530;2023-04-23T00:44:42;30.67;;;16.98;;
13202;SDS011;6666;51.626;7.530;2023-04-23T00:47:10;28.10;;;17.05;;
13202;SDS011;6666;51.626;7.530;2023-04-23T00:49:38;34.70;;;18.27;;
13202;SDS011;6666;51.626;7.530;2023-04-23T00:52:10;35.05;;;18.15;;
13202;SDS011;6666;51.626;7.530;2023-04-23T00:54:38;32.73;;;18.40;;
13202;SDS011;6666;51.626;7.530;2023-04-23T00:57:07;33.80;;;18.40;;
13202;SDS011;6666;51.626;7.530;2023-04-23T00:59:35;32.40;;;17.73;;
13202;SDS011;6666;51.626;7.530;2023-04-23T01:02:03;33.72;;;18.00;;
13202;SDS011;6666;51.626;7.530;2023-04-23T01:04:32;33.45;;;17.40;;
13202;SDS011;6666;51.626;7.530;2023-04-23T01:07:02;33.25;;;18.40;;
13202;SDS011;6666;51.626;7.530;2023-04-23T01:09:32;33.20;;;17.80;;
13202;SDS011;6666;51.626;7.530;2023-04-23T01:12:02;34.17;;;19.13;;
13202;SDS011;6666;51.626;7.530;2023-04-23T01:14:32;33.60;;;18.38;;
13202;SDS011;6666;51.626;7.530;2023-04-23T01:17:01;33.92;;;19.63;;
13202;SDS011;6666;51.626;7.530;2023-04-23T01:19:29;34.72;;;18.98;;
13202;SDS011;6666;51.626;7.530;2023-04-23T01:21:58;37.13;;;19.98;;
13202;SDS011;6666;51.626;7.530;2023-04-23T01:24:28;37.00;;;20.20;;
13202;SDS011;6666;51.626;7.530;2023-04-23T01:26:57;44.20;;;21.52;;
13202;SDS011;6666;51.626;7.530;2023-04-23T01:29:27;41.70;;;21.38;;
13202;SDS011;6666;51.626;7.530;2023-04-23T01:31:56;39.05;;;20.67;;
13202;SDS011;6666;51.626;7.530;2023-04-23T01:34:25;39.95;;;21.48;;
13202;SDS011;6666;51.626;7.530;2023-04-23T01:36:53;40.92;;;21.30;;
13202;SDS011;6666;51.626;7.530;2023-04-23T01:39:24;41.43;;;22.53;;
13202;SDS011;6666;51.626;7.530;2023-04-23T01:41:53;38.28;;;19.73;;
13202;SDS011;6666;51.626;7.530;2023-04-23T01:44:22;43.70;;;21.10;;
13202;SDS011;6666;51.626;7.530;2023-04-23T01:46:51;41.35;;;22.27;;
13202;SDS011;6666;51.626;7.530;2023-04-23T01:49:19;47.88;;;22.73;;
13202;SDS011;6666;51.626;7.530;2023-04-23T01:51:48;42.58;;;21.98;;
13202;SDS011;6666;51.626;7.530;2023-04-23T01:54:16;44.35;;;22.60;;
13202;SDS011;6666;51.626;7.530;2023-04-23T01:56:45;46.50;;;22.75;;
13202;SDS011;6666;51.626;7.530;2023-04-23T01:59:14;45.33;;;23.17;;
13202;SDS011;6666;51.626;7.530;2023-04-23T02:01:43;46.20;;;23.13;;
13202;SDS011;6666;51.626;7.530;2023-04-23T02:04:12;47.70;;;24.25;;
13202;SDS011;6666;51.626;7.530;2023-04-23T02:06:42;42.60;;;22.58;;
13202;SDS011;6666;51.626;7.530;2023-04-23T02:09:12;46.40;;;23.40;;
13202;SDS011;6666;51.626;7.530;2023-04-23T02:11:41;49.92;;;24.85;;
13202;SDS011;6666;51.626;7.530;2023-04-23T02:14:09;50.13;;;24.70;;
13202;SDS011;6666;51.626;7.530;2023-04-23T02:16:40;52.45;;;25.10;;
13202;SDS011;6666;51.626;7.530;2023-04-23T02:19:08;48.30;;;24.38;;
13202;SDS011;6666;51.626;7.530;2023-04-23T02:21:41;49.35;;;24.23;;
13202;SDS011;6666;51.626;7.530;2023-04-23T02:24:09;50.53;;;25.70;;
13202;SDS011;6666;51.626;7.530;2023-04-23T02:26:37;48.42;;;23.65;;
13202;SDS011;6666;51.626;7.530;2023-04-23T02:29:05;50.97;;;24.30;;
13202;SDS011;6666;51.626;7.530;2023-04-23T02:31:34;49.95;;;24.38;;
13202;SDS011;6666;51.626;7.530;2023-04-23T02:34:03;48.60;;;23.75;;
13202;SDS011;6666;51.626;7.530;2023-04-23T02:36:31;47.88;;;23.15;;
13202;SDS011;6666;51.626;7.530;2023-04-23T02:39:00;44.83;;;21.92;;
13202;SDS011;6666;51.626;7.530;2023-04-23T02:41:28;50.80;;;23.75;;
13202;SDS011;6666;51.626;7.530;2023-04-23T02:43:57;49.97;;;24.92;;
13202;SDS011;6666;51.626;7.530;2023-04-23T02:46:26;49.10;;;23.73;;
13202;SDS011;6666;51.626;7.530;2023-04-23T02:48:54;47.47;;;24.40;;
13202;SDS011;6666;51.626;7.530;2023-04-23T02:51:23;47.13;;;23.83;;
13202;SDS011;6666;51.626;7.530;2023-04-23T02:53:51;48.13;;;24.05;;
13202;SDS011;6666;51.626;7.530;2023-04-23T02:56:20;49.43;;;25.10;;
13202;SDS011;6666;51.626;7.530;2023-04-23T02:58:48;55.67;;;23.90;;
13202;SDS011;6666;51.626;7.530;2023-04-23T03:01:17;48.22;;;23.17;;
13202;SDS011;6666;51.626;7.530;2023-04-23T03:03:45;50.25;;;23.70;;
13202;SDS011;6666;51.626;7.530;2023-04-23T03:06:14;47.65;;;23.23;;
13202;SDS011;6666;51.626;7.530;2023-04-23T03:08:43;47.45;;;23.98;;
13202;SDS011;6666;51.626;7.530;2023-04-23T03:11:14;47.47;;;22.98;;
13202;SDS011;6666;51.626;7.530;2023-04-23T03:13:42;48.63;;;23.35;;
13202;SDS011;6666;51.626;7.530;2023-04-23T03:16:11;47.22;;;23.48;;
13202;SDS011;6666;51.626;7.530;2023-04-23T03:18:39;49.15;;;24.45;;
13202;SDS011;6666;51.626;7.530;2023-04-23T03:21:07;48.30;;;23.67;;
13202;SDS011;6666;51.626;7.530;2023-04-23T03:23:36;49.50;;;24.13;;
13202;SDS011;6666;51.626;7.530;2023-04-23T03:26:06;47.45;;;24.17;;
13202;SDS011;6666;51.626;7.530;2023-04-23T03:28:34;48.97;;;23.42;;
13202;SDS011;6666;51.626;7.530;2023-04-23T03:31:02;46.33;;;22.52;;
13202;SDS011;6666;51.626;7.530;2023-04-23T03:33:31;45.50;;;22.33;;
13202;SDS011;6666;51.626;7.530;2023-04-23T03:35:59;48.63;;;23.85;;
13202;SDS011;6666;51.626;7.530;2023-04-23T03:38:30;48.53;;;24.00;;
13202;SDS011;6666;51.626;7.530;2023-04-23T03:41:01;52.88;;;24.50;;
13202;SDS011;6666;51.626;7.530;2023-04-23T03:43:31;46.50;;;23.02;;
13202;SDS011;6666;51.626;7.530;2023-04-23T03:46:02;46.40;;;23.90;;
13202;SDS011;6666;51.626;7.530;2023-04-23T03:48:35;48.63;;;21.90;;
13202;SDS011;6666;51.626;7.530;2023-04-23T03:51:08;46.30;;;22.60;;
13202;SDS011;6666;51.626;7.530;2023-04-23T03:53:45;46.17;;;22.95;;
13202;SDS011;6666;51.626;7.530;2023-04-23T03:56:42;43.88;;;22.67;;
13202;SDS011;6666;51.626;7.530;2023-04-23T03:59:17;42.83;;;22.00;;
13202;SDS011;6666;51.626;7.530;2023-04-23T04:01:47;46.13;;;21.77;;
13202;SDS011;6666;51.626;7.530;2023-04-23T04:04:17;43.40;;;21.00;;
13202;SDS011;6666;51.626;7.530;2023-04-23T04:06:47;40.88;;;20.90;;
13202;SDS011;6666;51.626;7.530;2023-04-23T04:09:16;37.00;;;20.10;;
13202;SDS011;6666;51.626;7.530;2023-04-23T04:11:44;38.75;;;20.98;;
13202;SDS011;6666;51.626;7.530;2023-04-23T04:14:14;41.80;;;20.85;;
13202;SDS011;6666;51.626;7.530;2023-04-23T04:16:44;34.43;;;19.07;;
13202;SDS011;6666;51.626;7.530;2023-04-23T04:19:12;37.75;;;19.30;;
13202;SDS011;6666;51.626;7.530;2023-04-23T04:21:40;37.60;;;20.85;;
13202;SDS011;6666;51.626;7.530;2023-04-23T04:24:09;40.33;;;19.85;;
13202;SDS011;6666;51.626;7.530;2023-04-23T04:26:37;38.65;;;20.27;;
13202;SDS011;6666;51.626;7.530;2023-04-23T04:29:07;35.63;;;19.10;;
13202;SDS011;6666;51.626;7.530;2023-04-23T04:31:35;37.25;;;19.42;;
13202;SDS011;6666;51.626;7.530;2023-04-23T04:34:05;34.58;;;18.20;;
13202;SDS011;6666;51.626;7.530;2023-04-23T04:36:35;33.08;;;18.30;;
13202;SDS011;6666;51.626;7.530;2023-04-23T04:39:04;34.95;;;18.95;;
13202;SDS011;6666;51.626;7.530;2023-04-23T04:41:33;36.65;;;18.65;;
13202;SDS011;6666;51.626;7.530;2023-04-23T04:44:03;33.13;;;18.10;;
13202;SDS011;6666;51.626;7.530;2023-04-23T04:46:31;31.33;;;17.50;;
13202;SDS011;6666;51.626;7.530;2023-04-23T04:49:00;34.25;;;18.17;;
13202;SDS011;6666;51.626;7.530;2023-04-23T04:51:29;32.60;;;15.98;;
13202;SDS011;6666;51.626;7.530;2023-04-23T04:53:58;31.42;;;17.63;;
13202;SDS011;6666;51.626;7.530;2023-04-23T04:56:27;34.47;;;18.02;;
13202;SDS011;6666;51.626;7.530;2023-04-23T04:58:55;35.80;;;17.83;;
13202;SDS011;6666;51.626;7.530;2023-04-23T05:01:23;34.00;;;18.13;;
13202;SDS011;6666;51.626;7.530;2023-04-23T05:03:53;32.17;;;18.00;;
13202;SDS011;6666;51.626;7.530;2023-04-23T05:06:22;32.83;;;17.55;;
13202;SDS011;6666;51.626;7.530;2023-04-23T05:08:51;34.08;;;17.75;;
13202;SDS011;6666;51.626;7.530;2023-04-23T05:11:19;32.95;;;17.98;;
13202;SDS011;6666;51.626;7.530;2023-04-23T05:13:48;35.10;;;18.23;;
13202;SDS011;6666;51.626;7.530;2023-04-23T05:16:17;29.30;;;16.92;;
13202;SDS011;6666;51.626;7.530;2023-04-23T05:18:46;30.75;;;16.90;;
13202;SDS011;6666;51.626;7.530;2023-04-23T05:21:14;29.08;;;16.42;;
13202;SDS011;6666;51.626;7.530;2023-04-23T05:23:42;33.17;;;17.53;;
13202;SDS011;6666;51.626;7.530;2023-04-23T05:26:12;33.05;;;17.15;;
13202;SDS011;6666;51.626;7.530;2023-04-23T05:28:40;29.10;;;16.10;;
13202;SDS011;6666;51.626;7.530;2023-04-23T05:31:08;32.28;;;15.95;;
13202;SDS011;6666;51.626;7.530;2023-04-23T05:33:37;28.25;;;16.10;;
13202;SDS011;6666;51.626;7.530;2023-04-23T05:36:15;31.48;;;16.77;;
13202;SDS011;6666;51.626;7.530;2023-04-23T05:38:43;30.20;;;16.73;;
13202;SDS011;6666;51.626;7.530;2023-04-23T05:41:13;27.47;;;14.57;;
13202;SDS011;6666;51.626;7.530;2023-04-23T05:43:41;24.30;;;13.35;;
13202;SDS011;6666;51.626;7.530;2023-04-23T05:46:09;23.75;;;13.50;;
13202;SDS011;6666;51.626;7.530;2023-04-23T05:48:38;25.45;;;14.40;;
13202;SDS011;6666;51.626;7.530;2023-04-23T05:51:06;27.60;;;14.43;;
13202;SDS011;6666;51.626;7.530;2023-04-23T05:53:35;25.52;;;15.40;;
13202;SDS011;6666;51.626;7.530;2023-04-23T05:56:04;30.60;;;16.43;;
13202;SDS011;6666;51.626;7.530;2023-04-23T05:58:33;30.03;;;15.80;;
13202;SDS011;6666;51.626;7.530;2023-04-23T06:01:01;29.95;;;16.17;;
13202;SDS011;6666;51.626;7.530;2023-04-23T06:03:30;27.93;;;15.47;;
13202;SDS011;6666;51.626;7.530;2023-04-23T06:05:58;26.75;;;15.20;;
13202;SDS011;6666;51.626;7.530;2023-04-23T06:08:28;20.02;;;13.20;;
13202;SDS011;6666;51.626;7.530;2023-04-23T06:10:57;22.27;;;14.25;;
13202;SDS011;6666;51.626;7.530;2023-04-23T06:13:27;21.80;;;12.65;;
13202;SDS011;6666;51.626;7.530;2023-04-23T06:15:57;20.13;;;12.40;;
13202;SDS011;6666;51.626;7.530;2023-04-23T06:18:25;19.58;;;12.88;;
13202;SDS011;6666;51.626;7.530;2023-04-23T06:20:54;20.05;;;12.50;;
13202;SDS011;6666;51.626;7.530;2023-04-23T06:23:22;20.00;;;11.80;;
13202;SDS011;6666;51.626;7.530;2023-04-23T06:25:51;22.50;;;12.50;;
13202;SDS011;6666;51.626;7.530;2023-04-23T06:28:19;19.67;;;12.18;;
13202;SDS011;6666;51.626;7.530;2023-04-23T06:31:11;19.63;;;11.73;;
13202;SDS011;6666;51.626;7.530;2023-04-23T06:33:39;19.30;;;12.35;;
13202;SDS011;6666;51.626;7.530;2023-04-23T06:36:08;17.23;;;11.37;;
13202;SDS011;6666;51.626;7.530;2023-04-23T06:38:37;18.27;;;12.02;;
13202;SDS011;6666;51.626;7.530;2023-04-23T06:41:05;19.23;;;10.90;;
13202;SDS011;6666;51.626;7.530;2023-04-23T06:43:33;13.82;;;9.98;;
13202;SDS011;6666;51.626;7.530;2023-04-23T06:46:15;17.97;;;11.00;;
13202;SDS011;6666;51.626;7.530;2023-04-23T06:48:43;14.38;;;10.38;;
13202;SDS011;6666;51.626;7.530;2023-04-23T06:51:11;13.60;;;9.85;;
13202;SDS011;6666;51.626;7.530;2023-04-23T06:53:41;19.50;;;10.88;;
13202;SDS011;6666;51.626;7.530;2023-04-23T06:56:09;11.57;;;8.40;;
13202;SDS011;6666;51.626;7.530;2023-04-23T06:58:37;11.17;;;7.70;;
13202;SDS011;6666;51.626;7.530;2023-04-23T07:01:16;9.65;;;7.40;;
13202;SDS011;6666;51.626;7.530;2023-04-23T07:03:44;11.02;;;7.70;;
13202;SDS011;6666;51.626;7.530;2023-04-23T07:06:14;11.43;;;6.82;;
13202;SDS011;6666;51.626;7.530;2023-04-23T07:08:43;10.00;;;6.40;;
13202;SDS011;6666;51.626;7.530;2023-04-23T07:11:11;10.23;;;6.78;;
13202;SDS011;6666;51.626;7.530;2023-04-23T07:13:39;8.98;;;6.18;;
13202;SDS011;6666;51.626;7.530;2023-04-23T07:16:08;8.27;;;6.28;;
13202;SDS011;6666;51.626;7.530;2023-04-23T07:18:38;9.18;;;5.80;;
13202;SDS011;6666;51.626;7.530;2023-04-23T07:21:06;8.00;;;6.10;;
13202;SDS011;6666;51.626;7.530;2023-04-23T07:23:34;11.70;;;7.43;;
13202;SDS011;6666;51.626;7.530;2023-04-23T07:26:02;10.07;;;6.50;;
13202;SDS011;6666;51.626;7.530;2023-04-23T07:28:30;8.90;;;6.90;;
13202;SDS011;6666;51.626;7.530;2023-04-23T07:30:58;7.22;;;5.70;;
13202;SDS011;6666;51.626;7.530;2023-04-23T07:33:28;12.73;;;5.85;;
13202;SDS011;6666;51.626;7.530;2023-04-23T07:35:58;7.55;;;5.70;;
13202;SDS011;6666;51.626;7.530;2023-04-23T07:38:26;7.15;;;5.57;;
13202;SDS011;6666;51.626;7.530;2023-04-23T07:40:54;10.00;;;6.47;;
13202;SDS011;6666;51.626;7.530;2023-04-23T07:43:22;8.70;;;5.57;;
13202;SDS011;6666;51.626;7.530;2023-04-23T07:45:50;11.97;;;8.10;;
13202;SDS011;6666;51.626;7.530;2023-04-23T07:48:19;9.98;;;7.28;;
13202;SDS011;6666;51.626;7.530;2023-04-23T07:50:47;8.95;;;5.07;;
13202;SDS011;6666;51.626;7.530;2023-04-23T07:53:16;5.45;;;4.90;;
13202;SDS011;6666;51.626;7.530;2023-04-23T07:55:44;8.05;;;5.05;;
13202;SDS011;6666;51.626;7.530;2023-04-23T07:58:13;7.10;;;4.57;;
13202;SDS011;6666;51.626;7.530;2023-04-23T08:00:41;5.35;;;4.35;;
13202;SDS011;6666;51.626;7.530;2023-04-23T08:03:09;8.00;;;5.78;;
13202;SDS011;6666;51.626;7.530;2023-04-23T08:05:37;9.27;;;5.68;;
13202;SDS011;6666;51.626;7.530;2023-04-23T08:08:06;8.70;;;5.57;;
13202;SDS011;6666;51.626;7.530;2023-04-23T08:10:36;13.57;;;5.45;;
13202;SDS011;6666;51.626;7.530;2023-04-23T08:13:04;8.93;;;5.45;;
13202;SDS011;6666;51.626;7.530;2023-04-23T08:15:33;9.60;;;5.22;;
13202;SDS011;6666;51.626;7.530;2023-04-23T08:18:01;10.30;;;5.28;;
13202;SDS011;6666;51.626;7.530;2023-04-23T08:20:30;9.27;;;5.25;;
13202;SDS011;6666;51.626;7.530;2023-04-23T08:22:58;7.35;;;4.43;;
13202;SDS011;6666;51.626;7.530;2023-04-23T08:25:26;7.00;;;4.22;;
13202;SDS011;6666;51.626;7.530;2023-04-23T08:27:56;10.37;;;4.90;;
13202;SDS011;6666;51.626;7.530;2023-04-23T08:30:24;10.52;;;6.15;;
13202;SDS011;6666;51.626;7.530;2023-04-23T08:32:53;19.90;;;8.97;;
13202;SDS011;6666;51.626;7.530;2023-04-23T08:35:21;8.68;;;5.15;;
13202;SDS011;6666;51.626;7.530;2023-04-23T08:37:50;12.70;;;7.40;;
13202;SDS011;6666;51.626;7.530;2023-04-23T08:40:19;9.30;;;5.65;;
13202;SDS011;6666;51.626;7.530;2023-04-23T08:42:48;8.00;;;4.93;;
13202;SDS011;6666;51.626;7.530;2023-04-23T08:45:20;7.68;;;5.00;;
13202;SDS011;6666;51.626;7.530;2023-04-23T08:47:48;6.38;;;3.85;;
13202;SDS011;6666;51.626;7.530;2023-04-23T08:50:17;8.70;;;4.35;;
13202;SDS011;6666;51.626;7.530;2023-04-23T08:52:46;5.20;;;3.25;;
13202;SDS011;6666;51.626;7.530;2023-04-23T08:55:17;6.47;;;4.00;;
13202;SDS011;6666;51.626;7.530;2023-04-23T08:57:46;7.82;;;5.97;;
13202;SDS011;6666;51.626;7.530;2023-04-23T09:00:15;10.57;;;5.43;;
13202;SDS011;6666;51.626;7.530;2023-04-23T09:02:46;10.50;;;5.90;;
13202;SDS011;6666;51.626;7.530;2023-04-23T09:05:15;6.70;;;3.87;;
13202;SDS011;6666;51.626;7.530;2023-04-23T09:07:44;6.67;;;3.90;;
13202;SDS011;6666;51.626;7.530;2023-04-23T09:10:12;3.43;;;3.13;;
13202;SDS011;6666;51.626;7.530;2023-04-23T09:12:44;6.40;;;4.70;;
13202;SDS011;6666;51.626;7.530;2023-04-23T09:15:13;4.73;;;3.40;;
13202;SDS011;6666;51.626;7.530;2023-04-23T09:17:42;6.20;;;4.03;;
13202;SDS011;6666;51.626;7.530;2023-04-23T09:20:13;5.70;;;3.30;;
13202;SDS011;6666;51.626;7.530;2023-04-23T09:22:44;6.13;;;2.70;;
13202;SDS011;6666;51.626;7.530;2023-04-23T09:25:14;5.47;;;2.43;;
13202;SDS011;6666;51.626;7.530;2023-04-23T09:27:43;4.60;;;2.80;;
13202;SDS011;6666;51.626;7.530;2023-04-23T09:30:12;4.47;;;2.85;;
13202;SDS011;6666;51.626;7.530;2023-04-23T09:32:42;5.85;;;2.10;;
13202;SDS011;6666;51.626;7.530;2023-04-23T09:35:14;3.30;;;2.20;;
13202;SDS011;6666;51.626;7.530;2023-04-23T09:37:46;5.45;;;2.70;;
13202;SDS011;6666;51.626;7.530;2023-04-23T09:40:15;5.25;;;2.08;;
13202;SDS011;6666;51.626;7.530;2023-04-23T09:42:46;5.10;;;2.35;;
13202;SDS011;6666;51.626;7.530;2023-04-23T09:45:15;3.95;;;1.92;;
13202;SDS011;6666;51.626;7.530;2023-04-23T09:47:47;6.88;;;2.80;;
13202;SDS011;6666;51.626;7.530;2023-04-23T09:50:19;4.87;;;2.70;;
13202;SDS011;6666;51.626;7.530;2023-04-23T09:52:59;2.90;;;2.20;;
13202;SDS011;6666;51.626;7.530;2023-04-23T09:55:28;3.53;;;2.40;;
13202;SDS011;6666;51.626;7.530;2023-04-23T09:58:01;4.63;;;2.30;;
13202;SDS011;6666;51.626;7.530;2023-04-23T10:00:34;3.70;;;2.10;;
13202;SDS011;6666;51.626;7.530;2023-04-23T10:03:03;6.10;;;2.40;;
13202;SDS011;6666;51.626;7.530;2023-04-23T10:05:38;3.90;;;2.25;;
13202;SDS011;6666;51.626;7.530;2023-04-23T10:08:26;5.50;;;2.00;;
13202;SDS011;6666;51.626;7.530;2023-04-23T10:10:54;6.35;;;2.47;;
13202;SDS011;6666;51.626;7.530;2023-04-23T10:13:39;2.70;;;2.00;;
13202;SDS011;6666;51.626;7.530;2023-04-23T10:16:08;4.93;;;2.10;;
13202;SDS011;6666;51.626;7.530;2023-04-23T10:18:49;3.05;;;2.10;;
13202;SDS011;6666;51.626;7.530;2023-04-23T10:21:22;5.97;;;1.80;;
13202;SDS011;6666;51.626;7.530;2023-04-23T10:24:02;4.97;;;1.90;;
13202;SDS011;6666;51.626;7.530;2023-04-23T10:26:32;2.95;;;1.55;;
13202;SDS011;6666;51.626;7.530;2023-04-23T10:29:03;7.03;;;1.80;;
13202;SDS011;6666;51.626;7.530;2023-04-23T10:31:33;3.45;;;1.70;;
13202;SDS011;6666;51.626;7.530;2023-04-23T10:34:03;5.68;;;1.90;;
13202;SDS011;6666;51.626;7.530;2023-04-23T10:36:34;2.20;;;1.40;;
13202;SDS011;6666;51.626;7.530;2023-04-23T10:39:03;3.35;;;1.40;;
13202;SDS011;6666;51.626;7.530;2023-04-23T10:41:35;4.18;;;1.50;;
13202;SDS011;6666;51.626;7.530;2023-04-23T10:44:05;2.53;;;1.30;;
13202;SDS011;6666;51.626;7.530;2023-04-23T10:46:37;4.00;;;1.30;;
13202;SDS011;6666;51.626;7.530;2023-04-23T10:49:06;3.90;;;1.23;;
13202;SDS011;6666;51.626;7.530;2023-04-23T10:51:41;3.40;;;1.33;;
13202;SDS011;6666;51.626;7.530;2023-04-23T10:54:32;6.75;;;1.80;;
13202;SDS011;6666;51.626;7.530;2023-04-23T10:57:02;2.53;;;1.30;;
13202;SDS011;6666;51.626;7.530;2023-04-23T10:59:32;3.10;;;1.20;;
13202;SDS011;6666;51.626;7.530;2023-04-23T11:02:04;6.03;;;1.10;;
13202;SDS011;6666;51.626;7.530;2023-04-23T11:04:35;2.67;;;1.20;;
13202;SDS011;6666;51.626;7.530;2023-04-23T11:07:10;1.45;;;1.00;;
13202;SDS011;6666;51.626;7.530;2023-04-23T11:09:40;5.07;;;1.30;;
13202;SDS011;6666;51.626;7.530;2023-04-23T11:12:10;3.30;;;1.30;;
13202;SDS011;6666;51.626;7.530;2023-04-23T11:14:44;3.13;;;1.40;;
13202;SDS011;6666;51.626;7.530;2023-04-23T11:17:14;9.07;;;4.90;;
13202;SDS011;6666;51.626;7.530;2023-04-23T11:22:38;10.07;;;6.90;;
13202;SDS011;6666;51.626;7.530;2023-04-23T11:25:08;9.10;;;3.80;;
13202;SDS011;6666;51.626;7.530;2023-04-23T11:27:38;5.00;;;2.50;;
13202;SDS011;6666;51.626;7.530;2023-04-23T11:30:10;5.07;;;1.63;;
13202;SDS011;6666;51.626;7.530;2023-04-23T11:32:39;7.10;;;2.80;;
13202;SDS011;6666;51.626;7.530;2023-04-23T11:35:08;2.05;;;1.10;;
13202;SDS011;6666;51.626;7.530;2023-04-23T11:37:41;7.28;;;1.30;;
13202;SDS011;6666;51.626;7.530;2023-04-23T11:40:11;2.33;;;1.50;;
13202;SDS011;6666;51.626;7.530;2023-04-23T11:42:45;6.40;;;1.30;;
13202;SDS011;6666;51.626;7.530;2023-04-23T11:45:15;2.60;;;1.30;;
13202;SDS011;6666;51.626;7.530;2023-04-23T11:47:44;2.83;;;1.30;;
13202;SDS011;6666;51.626;7.530;2023-04-23T11:50:16;5.28;;;1.27;;
13202;SDS011;6666;51.626;7.530;2023-04-23T11:52:47;1.60;;;1.17;;
13202;SDS011;6666;51.626;7.530;2023-04-23T11:55:16;4.32;;;1.20;;
13202;SDS011;6666;51.626;7.530;2023-04-23T11:57:44;4.85;;;1.42;;
13202;SDS011;6666;51.626;7.530;2023-04-23T12:00:14;2.45;;;1.48;;
13202;SDS011;6666;51.626;7.530;2023-04-23T12:02:53;1.50;;;1.00;;
13202;SDS011;6666;51.626;7.530;2023-04-23T12:05:26;1.90;;;1.40;;
13202;SDS011;6666;51.626;7.530;2023-04-23T12:08:06;1.70;;;1.30;;
13202;SDS011;6666;51.626;7.530;2023-04-23T12:10:43;1.90;;;1.00;;
13202;SDS011;6666;51.626;7.530;2023-04-23T12:13:14;3.13;;;1.30;;
13202;SDS011;6666;51.626;7.530;2023-04-23T12:15:44;3.83;;;1.23;;
13202;SDS011;6666;51.626;7.530;2023-04-23T12:18:13;4.10;;;1.23;;
13202;SDS011;6666;51.626;7.530;2023-04-23T12:20:42;7.00;;;1.10;;
13202;SDS011;6666;51.626;7.530;2023-04-23T12:23:12;4.35;;;1.40;;
13202;SDS011;6666;51.626;7.530;2023-04-23T12:25:40;2.53;;;1.40;;
13202;SDS011;6666;51.626;7.530;2023-04-23T12:28:08;2.10;;;1.30;;
13202;SDS011;6666;51.626;7.530;2023-04-23T12:30:41;2.70;;;1.30;;
13202;SDS011;6666;51.626;7.530;2023-04-23T12:33:10;1.95;;;1.15;;
13202;SDS011;6666;51.626;7.530;2023-04-23T12:35:39;1.23;;;1.00;;
13202;SDS011;6666;51.626;7.530;2023-04-23T12:38:21;1.95;;;1.33;;
13202;SDS011;6666;51.626;7.530;2023-04-23T12:40:50;4.60;;;1.30;;
13202;SDS011;6666;51.626;7.530;2023-04-23T12:43:18;3.33;;;1.20;;
13202;SDS011;6666;51.626;7.530;2023-04-23T12:45:47;1.50;;;1.10;;
13202;SDS011;6666;51.626;7.530;2023-04-23T12:48:15;3.53;;;1.20;;
13202;SDS011;6666;51.626;7.530;2023-04-23T12:50:43;1.13;;;1.00;;
13202;SDS011;6666;51.626;7.530;2023-04-23T12:53:12;3.10;;;0.80;;
13202;SDS011;6666;51.626;7.530;2023-04-23T12:55:42;1.10;;;1.00;;
13202;SDS011;6666;51.626;7.530;2023-04-23T12:58:11;2.30;;;0.98;;
13202;SDS011;6666;51.626;7.530;2023-04-23T13:00:39;2.13;;;1.10;;
13202;SDS011;6666;51.626;7.530;2023-04-23T13:03:07;1.50;;;0.80;;
13202;SDS011;6666;51.626;7.530;2023-04-23T13:05:39;1.40;;;0.80;;
13202;SDS011;6666;51.626;7.530;2023-04-23T13:08:07;2.67;;;0.90;;
13202;SDS011;6666;51.626;7.530;2023-04-23T13:10:35;1.25;;;0.75;;
13202;SDS011;6666;51.626;7.530;2023-04-23T13:13:05;1.30;;;0.70;;
13202;SDS011;6666;51.626;7.530;2023-04-23T13:15:33;1.00;;;0.82;;
13202;SDS011;6666;51.626;7.530;2023-04-23T13:18:01;1.67;;;1.00;;
13202;SDS011;6666;51.626;7.530;2023-04-23T13:20:30;1.50;;;1.23;;
13202;SDS011;6666;51.626;7.530;2023-04-23T13:22:58;2.08;;;1.10;;
13202;SDS011;6666;51.626;7.530;2023-04-23T13:25:28;6.00;;;1.45;;
13202;SDS011;6666;51.626;7.530;2023-04-23T13:27:56;2.50;;;1.30;;
13202;SDS011;6666;51.626;7.530;2023-04-23T13:30:26;1.60;;;1.20;;
13202;SDS011;6666;51.626;7.530;2023-04-23T13:32:54;1.33;;;0.90;;
13202;SDS011;6666;51.626;7.530;2023-04-23T13:35:24;1.65;;;1.20;;
13202;SDS011;6666;51.626;7.530;2023-04-23T13:37:52;2.33;;;1.20;;
13202;SDS011;6666;51.626;7.530;2023-04-23T13:40:20;3.10;;;1.20;;
13202;SDS011;6666;51.626;7.530;2023-04-23T13:42:49;3.35;;;1.08;;
13202;SDS011;6666;51.626;7.530;2023-04-23T13:45:18;1.20;;;1.00;;
13202;SDS011;6666;51.626;7.530;2023-04-23T13:47:48;3.10;;;1.30;;
13202;SDS011;6666;51.626;7.530;2023-04-23T13:50:16;4.53;;;1.30;;
13202;SDS011;6666;51.626;7.530;2023-04-23T13:52:44;3.10;;;1.00;;
13202;SDS011;6666;51.626;7.530;2023-04-23T13:55:13;3.42;;;1.70;;
13202;SDS011;6666;51.626;7.530;2023-04-23T13:57:42;8.95;;;5.00;;
13202;SDS011;6666;51.626;7.530;2023-04-23T14:00:10;3.40;;;2.27;;
13202;SDS011;6666;51.626;7.530;2023-04-23T14:02:39;6.10;;;3.60;;
13202;SDS011;6666;51.626;7.530;2023-04-23T14:05:09;4.03;;;1.80;;
13202;SDS011;6666;51.626;7.530;2023-04-23T14:07:37;3.80;;;2.25;;
13202;SDS011;6666;51.626;7.530;2023-04-23T14:10:05;5.20;;;1.80;;
13202;SDS011;6666;51.626;7.530;2023-04-23T14:12:34;2.28;;;1.50;;
13202;SDS011;6666;51.626;7.530;2023-04-23T14:15:04;3.70;;;1.38;;
13202;SDS011;6666;51.626;7.530;2023-04-23T14:17:33;3.00;;;1.90;;
13202;SDS011;6666;51.626;7.530;2023-04-23T14:20:02;2.20;;;1.30;;
13202;SDS011;6666;51.626;7.530;2023-04-23T14:22:33;3.63;;;2.08;;
13202;SDS011;6666;51.626;7.530;2023-04-23T14:25:02;7.07;;;4.00;;
13202;SDS011;6666;51.626;7.530;2023-04-23T14:27:38;4.68;;;2.10;;
13202;SDS011;6666;51.626;7.530;2023-04-23T14:30:13;4.77;;;1.80;;
13202;SDS011;6666;51.626;7.530;2023-04-23T14:32:43;2.95;;;1.10;;
13202;SDS011;6666;51.626;7.530;2023-04-23T14:35:15;1.70;;;1.30;;
13202;SDS011;6666;51.626;7.530;2023-04-23T14:37:53;2.80;;;1.02;;
13202;SDS011;6666;51.626;7.530;2023-04-23T14:40:21;1.98;;;1.10;;
13202;SDS011;6666;51.626;7.530;2023-04-23T14:42:50;3.78;;;1.00;;
13202;SDS011;6666;51.626;7.530;2023-04-23T14:45:20;3.90;;;1.20;;
13202;SDS011;6666;51.626;7.530;2023-04-23T14:47:48;1.48;;;0.77;;
13202;SDS011;6666;51.626;7.530;2023-04-23T14:50:16;1.90;;;1.00;;
13202;SDS011;6666;51.626;7.530;2023-04-23T14:52:46;1.25;;;0.80;;
13202;SDS011;6666;51.626;7.530;2023-04-23T14:55:16;1.75;;;0.98;;
13202;SDS011;6666;51.626;7.530;2023-04-23T14:57:44;7.32;;;4.68;;
13202;SDS011;6666;51.626;7.530;2023-04-23T15:00:13;9.48;;;5.05;;
13202;SDS011;6666;51.626;7.530;2023-04-23T15:02:41;3.38;;;2.35;;
13202;SDS011;6666;51.626;7.530;2023-04-23T15:05:11;3.72;;;2.05;;
13202;SDS011;6666;51.626;7.530;2023-04-23T15:07:41;1.90;;;1.20;;